Thursday, September 20, 2018, 10:17 PM GMT
Back to Local

CXDI, Delhi CS, Ont.

Location: , , Canada Lat: 42.867
Local Time: 10:17 PM GMT (22:17 GMT) Lon: -80.55
Time Zone: GMT Elev: 761 ft

Show me the last for .
Show Coded

Time T Td Feel RH Dir Speed Gust Alt SLP Vis Weather Sky Remarks
2018-09-20 22:00 68 61 - 77 100° 3 - - 30.03 0 None
2018-09-20 21:00 68 60 - 75 90° 5 - - 30.04 0 None
2018-09-20 20:00 69 60 - 73 50° 2 - - 30.08 0 None
2018-09-20 19:00 70 61 76 71 80° 3 - - 30.08 0 None
2018-09-20 18:00 70 61 - 73 110° 3 - - 30.11 0 None
2018-09-20 17:00 69 60 - 73 100° 3 - - 30.11 0 None
2018-09-20 16:00 69 59 - 72 100° 3 - - 30.12 0 None
2018-09-20 15:00 67 58 - 73 90° 5 - - 30.14 0 None
2018-09-20 14:00 64 56 - 75 80° 3 - - 30.15 0 None
2018-09-20 13:00 61 57 - 87 50° 2 - - 30.13 0 None
2018-09-20 12:00 57 56 - 93 50° 1 - - 30.11 0 None
2018-09-20 11:00 54 53 - 94 30° 1 - - 30.11 0 None
2018-09-20 10:00 55 53 - 91 70° 1 - - 30.10 0 None
2018-09-20 09:00 55 54 - 93 70° 1 - - 30.09 0 None
2018-09-20 08:00 56 54 - 93 330° 2 - - 30.07 0 None
2018-09-20 07:00 57 54 - 91 - Calm - - 30.07 0 None
2018-09-20 06:00 57 54 - 88 50° 1 - - 30.07 0 None
2018-09-20 05:00 59 55 - 87 20° 1 - - 30.08 0 None
2018-09-20 04:00 60 56 - 86 90° 1 - - 30.08 0 None
2018-09-20 03:00 60 58 - 93 350° 1 - - 30.10 0 None
2018-09-20 02:00 62 59 - 92 - Calm - - 30.08 0 None
2018-09-20 01:00 63 60 - 88 210° 1 - - 30.09 0 None
2018-09-20 00:00 66 60 - 81 190° 3 - - 30.06 0 None
2018-09-19 23:00 69 60 - 72 180° 5 - - 30.05 0 None

Support USWX by starting your Amazon purchase here.